Overview Statistics Trail Chart Weather Telemetry Raw packets
 

This is the latest recevied weather packets stored in our database for station/object KY0TEQ-13. If no packets are shown the sender has not sent any weather packets the latest 10 day(s).

<< 55 56 57 58 59 60 61 >>
Time Temp. Humidity Pressure Rain* Wind** Luminosity Snow
1788305232 25.56° C 25% 1307.9 hPa 0 mm - 254 W/m² -
1788304928 25.56° C 26% 1308.2 hPa 0 mm - 270 W/m² -
1788304624 25° C 25% 1308 hPa 0 mm - 291 W/m² -
1788304320 25° C 27% 1308 hPa 0 mm - 309 W/m² -
1788304016 25° C 29% 1308 hPa 0 mm - 309 W/m² -
1788303716 23.89° C 31% 1308.3 hPa 0 mm - 358 W/m² -
1788303411 25° C 30% 1308.2 hPa 0 mm - 222 W/m² -
1788303111 25° C 29% 1308.3 hPa 0 mm - 356 W/m² -
1788302807 25.56° C 30% 1308.3 hPa 0 mm - 400 W/m² -
1788302503 25° C 31% 1308.3 hPa 0 mm - 403 W/m² -
1788302198 25° C 32% 1308.4 hPa 0 mm - 363 W/m² -
1788301893 23.89° C 33% 1308.3 hPa 0 mm - 114 W/m² -
1788301590 25.56° C 32% 1308.4 hPa 0 mm - 77 W/m² -
1788301285 25° C 31% 1308.3 hPa 0 mm - 505 W/m² -
1788300981 25.56° C 31% 1308.4 hPa 0 mm - 518 W/m² -
1788300677 26.11° C 29% 1308.5 hPa 0 mm - 541 W/m² -
1788300376 24.44° C 33% 1308.3 hPa 0 mm - 537 W/m² -
1788300075 25° C 33% 1308.5 hPa 0 mm - 85 W/m² -
1788299773 25° C 31% 1308.5 hPa 0 mm - 574 W/m² -
1788299468 23.89° C 33% 1308.5 hPa 0 mm - 540 W/m² -
1788299167 23.89° C 32% 1308.6 hPa 0 mm - 93 W/m² -
1788298861 24.44° C 32% 1308.6 hPa 0 mm - 622 W/m² -
1788298561 25.56° C 31% 1308.8 hPa 0 mm - 645 W/m² -
1788298255 26.11° C 28% 1308.6 hPa 0 mm - 630 W/m² -
1788297949 25° C 31% 1308.9 hPa 0 mm - 605 W/m² -

* Rain latest hour (hover to see other rain measurements)
** Current wind speed in m/s (hover to see current wind gust speed)